createdAt,value
2018-04-01T00:00:03.958Z,100465.35
2018-04-01T00:02:31.633Z,100475.34
2018-04-01T00:04:59.279Z,100476.61
2018-04-01T00:07:27.590Z,100469.17
2018-04-01T00:09:55.302Z,100472.20
2018-04-01T00:12:22.943Z,100475.53
2018-04-01T00:14:50.584Z,100489.67
2018-04-01T00:17:18.246Z,100487.69
2018-04-01T00:19:45.982Z,100488.75
2018-04-01T00:22:13.657Z,100484.41
2018-04-01T00:24:41.341Z,100479.12
2018-04-01T00:27:09.005Z,100463.23
2018-04-01T00:29:36.681Z,100464.95
2018-04-01T00:32:04.365Z,100468.61
2018-04-01T00:34:32.065Z,100447.58
2018-04-01T00:36:59.697Z,100450.25
2018-04-01T00:39:27.361Z,100456.16
2018-04-01T00:41:55.065Z,100438.42
2018-04-01T00:44:22.718Z,100450.09
2018-04-01T00:46:50.350Z,100441.11
2018-04-01T00:49:17.986Z,100449.61
2018-04-01T00:51:45.617Z,100457.55
2018-04-01T00:54:13.303Z,100444.51
2018-04-01T00:56:40.945Z,100433.58
2018-04-01T00:59:08.712Z,100425.14
2018-04-01T01:01:36.414Z,100418.15
2018-04-01T01:04:04.060Z,100415.28
2018-04-01T01:06:31.714Z,100412.02
2018-04-01T01:08:59.410Z,100412.13
2018-04-01T01:11:27.213Z,100413.27
2018-04-01T01:13:54.917Z,100413.20
2018-04-01T01:16:22.553Z,100416.27
2018-04-01T01:18:50.203Z,100398.23
2018-04-01T01:21:17.954Z,100412.16
2018-04-01T01:23:45.834Z,100405.54
2018-04-01T01:26:13.466Z,100395.49
2018-04-01T01:28:41.118Z,100396.20
2018-04-01T01:31:08.789Z,100393.16
2018-04-01T01:33:36.449Z,100391.40
2018-04-01T01:36:04.091Z,100399.28
2018-04-01T01:38:31.771Z,100400.23
2018-04-01T01:40:59.456Z,100399.68
2018-04-01T01:43:27.229Z,100405.94
2018-04-01T01:45:54.885Z,100372.24
2018-04-01T01:48:22.530Z,100383.94
2018-04-01T01:50:50.242Z,100384.75
2018-04-01T01:53:17.919Z,100368.17
2018-04-01T01:55:45.585Z,100357.84
2018-04-01T01:58:13.315Z,100366.54
2018-04-01T02:00:41.019Z,100344.04
2018-04-01T02:03:08.654Z,100331.81
2018-04-01T02:05:36.355Z,100328.69
2018-04-01T02:08:04.001Z,100345.70
2018-04-01T02:10:31.835Z,100351.84
2018-04-01T02:12:59.469Z,100355.83
2018-04-01T02:15:27.142Z,100349.02
2018-04-01T02:17:54.778Z,100353.30
2018-04-01T02:20:22.435Z,100350.54
2018-04-01T02:22:50.146Z,100343.95
2018-04-01T02:25:17.823Z,100333.56
2018-04-01T02:27:45.573Z,100337.80
2018-04-01T02:30:13.287Z,100312.80
2018-04-01T02:32:40.999Z,100304.53
2018-04-01T02:35:08.667Z,100310.09
2018-04-01T02:37:36.314Z,100304.33
2018-04-01T02:40:03.954Z,100279.22
2018-04-01T02:42:31.648Z,100291.95
2018-04-01T02:44:59.292Z,100282.51
2018-04-01T02:47:27.183Z,100290.39
2018-04-01T02:49:54.937Z,100308.80
2018-04-01T02:52:22.569Z,100302.96
2018-04-01T02:54:50.265Z,100290.72
2018-04-01T02:57:18.040Z,100300.80
2018-04-01T02:59:45.677Z,100300.50
2018-04-01T03:02:13.354Z,100297.09
2018-04-01T03:04:41.164Z,100290.95
2018-04-01T03:07:08.892Z,100290.35
2018-04-01T03:09:36.597Z,100298.84
2018-04-01T03:12:04.275Z,100290.31
2018-04-01T03:14:31.967Z,100296.52
2018-04-01T03:16:59.617Z,100291.55
2018-04-01T03:19:27.285Z,100286.53
2018-04-01T03:21:55.068Z,100290.49
2018-04-01T03:24:22.791Z,100275.23
2018-04-01T03:26:50.438Z,100283.07
2018-04-01T03:29:18.365Z,100277.91
2018-04-01T03:31:46.134Z,100276.34
2018-04-01T03:34:13.788Z,100268.98
2018-04-01T03:36:41.490Z,100263.66
2018-04-01T03:39:09.133Z,100275.17
2018-04-01T03:41:36.812Z,100279.50
2018-04-01T03:44:04.544Z,100269.52
2018-04-01T03:46:32.195Z,100267.20
2018-04-01T03:48:59.865Z,100264.28
2018-04-01T03:51:27.507Z,100259.22
2018-04-01T03:53:55.955Z,100257.86
2018-04-01T03:56:23.594Z,100259.32
2018-04-01T03:58:51.283Z,100256.38
2018-04-01T04:01:18.990Z,100248.77
2018-04-01T04:03:46.666Z,100241.80
2018-04-01T04:06:14.362Z,100245.05
2018-04-01T04:08:42.094Z,100261.50
2018-04-01T04:11:09.794Z,100236.13
2018-04-01T04:13:37.482Z,100240.55
2018-04-01T04:16:05.118Z,100236.39
2018-04-01T04:18:32.773Z,100243.42
2018-04-01T04:21:00.478Z,100239.05
2018-04-01T04:23:28.145Z,100232.06
2018-04-01T04:25:55.790Z,100208.81
2018-04-01T04:28:23.594Z,100211.26
2018-04-01T04:30:51.364Z,100203.08
2018-04-01T04:33:18.997Z,100182.36
2018-04-01T04:35:46.683Z,100198.63
2018-04-01T04:38:14.356Z,100194.31
2018-04-01T04:40:42.207Z,100183.95
2018-04-01T04:43:09.890Z,100156.98
2018-04-01T04:45:37.560Z,100146.34
2018-04-01T04:48:05.520Z,100152.78
2018-04-01T04:50:33.207Z,100140.84
2018-04-01T04:53:00.850Z,100132.31
2018-04-01T04:55:28.502Z,100128.08
2018-04-01T04:57:56.170Z,100122.79
2018-04-01T05:00:23.811Z,100131.67
2018-04-01T05:02:51.535Z,100130.92
2018-04-01T05:05:19.165Z,100132.45
2018-04-01T05:07:46.873Z,100119.52
2018-04-01T05:10:14.697Z,100116.11
2018-04-01T05:12:42.451Z,100116.80
2018-04-01T05:15:10.931Z,100115.88
2018-04-01T05:17:38.571Z,100125.50
2018-04-01T05:20:06.355Z,100126.81
2018-04-01T05:22:34.222Z,100114.33
2018-04-01T05:25:01.892Z,100109.53
2018-04-01T05:27:29.561Z,100106.72
2018-04-01T05:29:57.268Z,100108.50
2018-04-01T05:32:24.930Z,100102.28
2018-04-01T05:34:52.569Z,100098.48
2018-04-01T05:37:20.219Z,100103.91
2018-04-01T05:39:47.853Z,100099.20
2018-04-01T05:42:15.561Z,100109.74
2018-04-01T05:44:43.225Z,100104.05
2018-04-01T05:47:10.881Z,100104.81
2018-04-01T05:49:38.517Z,100104.81
2018-04-01T05:52:06.148Z,100104.89
2018-04-01T05:54:34.055Z,100098.33
2018-04-01T05:57:01.709Z,100106.13
2018-04-01T05:59:29.374Z,100095.17
2018-04-01T06:01:57.058Z,100098.42
2018-04-01T06:04:24.807Z,100102.98
2018-04-01T06:06:52.497Z,100109.33
2018-04-01T06:09:20.198Z,100098.62
2018-04-01T06:11:47.998Z,100111.36
2018-04-01T06:14:15.676Z,100101.95
2018-04-01T06:16:43.417Z,100101.14
2018-04-01T06:19:11.055Z,100100.81
2018-04-01T06:21:38.759Z,100095.93
2018-04-01T06:24:06.393Z,100096.84
2018-04-01T06:26:34.074Z,100099.67
2018-04-01T06:29:01.723Z,100103.51
2018-04-01T06:31:29.407Z,100098.39
2018-04-01T06:33:57.207Z,100081.89
2018-04-01T06:36:24.857Z,100095.39
2018-04-01T06:38:52.533Z,100089.08
2018-04-01T06:41:20.209Z,100092.86
2018-04-01T06:43:47.863Z,100077.44
2018-04-01T06:46:15.566Z,100086.17
2018-04-01T06:48:43.282Z,100070.25
2018-04-01T06:51:11.015Z,100070.15
2018-04-01T06:53:38.645Z,100057.34
2018-04-01T06:56:06.282Z,100054.96
2018-04-01T06:58:33.977Z,100042.39
2018-04-01T07:01:01.666Z,100044.61
2018-04-01T07:03:29.302Z,100051.92
2018-04-01T07:05:56.932Z,100047.89
2018-04-01T07:08:24.582Z,100047.60
2018-04-01T07:10:52.249Z,100042.20
2018-04-01T07:13:19.921Z,100040.44
2018-04-01T07:15:47.557Z,100045.52
2018-04-01T07:18:15.202Z,100032.31
2018-04-01T07:20:42.915Z,100033.20
2018-04-01T07:23:10.587Z,100034.73
2018-04-01T07:25:38.240Z,100028.64
2018-04-01T07:28:05.958Z,100027.41
2018-04-01T07:30:33.828Z,100030.14
2018-04-01T07:33:01.515Z,100028.80
2018-04-01T07:35:29.162Z,100026.36
2018-04-01T07:37:56.826Z,100047.97
2018-04-01T07:40:24.504Z,100065.55
2018-04-01T07:42:52.161Z,100046.30
2018-04-01T07:45:19.878Z,100039.72
2018-04-01T07:47:47.530Z,100029.56
2018-04-01T07:50:15.176Z,100003.76
2018-04-01T07:52:42.893Z,100010.95
2018-04-01T07:55:10.762Z,100015.90
2018-04-01T07:57:38.433Z,99985.92
2018-04-01T08:00:06.110Z,99995.98
2018-04-01T08:02:33.748Z,99997.23
2018-04-01T08:05:02.030Z,99996.84
2018-04-01T08:07:29.723Z,99998.30
2018-04-01T08:09:57.353Z,99997.22
2018-04-01T08:12:25.164Z,99994.97
2018-04-01T08:14:52.810Z,99998.20
2018-04-01T08:17:20.485Z,100009.94
2018-04-01T08:19:48.208Z,100007.31
2018-04-01T08:22:15.879Z,99995.45
2018-04-01T08:24:43.604Z,100016.34
2018-04-01T08:27:11.254Z,100014.64
2018-04-01T08:29:38.885Z,100001.61
2018-04-01T08:32:06.625Z,99984.30
2018-04-01T08:34:34.266Z,99995.64
2018-04-01T08:37:02.156Z,100003.08
2018-04-01T08:39:29.910Z,100006.13
2018-04-01T08:41:57.550Z,100011.60
2018-04-01T08:44:25.223Z,100019.80
2018-04-01T08:46:52.890Z,100017.98
2018-04-01T08:49:20.540Z,100014.92
2018-04-01T08:51:48.337Z,100013.50
2018-04-01T08:54:16.273Z,100033.55
2018-04-01T08:56:44.026Z,100025.27
2018-04-01T08:59:11.749Z,100008.81
2018-04-01T09:01:39.398Z,100009.82
2018-04-01T09:04:07.037Z,100028.03
2018-04-01T09:06:34.687Z,100021.05
2018-04-01T09:09:02.335Z,100011.75
2018-04-01T09:11:30.155Z,100014.88
2018-04-01T09:13:57.827Z,100008.12
2018-04-01T09:16:25.498Z,100007.62
2018-04-01T09:18:53.243Z,99997.78
2018-04-01T09:21:20.881Z,100006.50
2018-04-01T09:23:48.586Z,99998.08
2018-04-01T09:26:16.217Z,99986.11
2018-04-01T09:28:43.893Z,99979.14
2018-04-01T09:31:11.659Z,99987.02
2018-04-01T09:33:39.293Z,99970.23
2018-04-01T09:36:06.947Z,99972.71
2018-04-01T09:38:34.630Z,99973.70
2018-04-01T09:41:02.410Z,99977.73
2018-04-01T09:43:30.075Z,99973.13
2018-04-01T09:45:57.738Z,99973.86
2018-04-01T09:48:26.185Z,99966.36
2018-04-01T09:50:53.875Z,99972.75
2018-04-01T09:53:21.652Z,99973.36
2018-04-01T09:55:49.295Z,99968.89
2018-04-01T09:58:16.953Z,99962.94
2018-04-01T10:03:54.246Z,99963.55
2018-04-01T10:06:26.031Z,99967.84
2018-04-01T10:08:55.385Z,99964.74
2018-04-01T10:11:24.651Z,99964.23
2018-04-01T10:13:53.830Z,99975.11
2018-04-01T10:16:23.302Z,99963.34
2018-04-01T10:18:52.503Z,99967.77
2018-04-01T10:21:21.684Z,99958.52
2018-04-01T10:23:51.010Z,99956.37
2018-04-01T10:26:20.817Z,99951.19
2018-04-01T10:28:52.175Z,99943.66
2018-04-01T10:31:21.699Z,99937.84
2018-04-01T10:33:50.886Z,99930.36
2018-04-01T10:36:19.954Z,99933.17
2018-04-01T10:38:49.063Z,99931.67
2018-04-01T10:41:18.217Z,99930.30
2018-04-01T10:43:47.297Z,99939.30
2018-04-01T10:46:16.350Z,99935.05
2018-04-01T10:48:45.451Z,99919.27
2018-04-01T10:51:14.568Z,99927.59
2018-04-01T10:53:43.743Z,99922.97
2018-04-01T10:56:14.942Z,99925.13
2018-04-01T10:58:42.658Z,99913.34
2018-04-01T11:01:10.438Z,99912.67
2018-04-01T11:03:38.134Z,99901.67
2018-04-01T11:06:05.761Z,99911.34
2018-04-01T11:08:34.065Z,99911.25
2018-04-01T11:11:01.700Z,99913.25
2018-04-01T11:13:29.391Z,99920.39
2018-04-01T11:15:57.044Z,99913.91
2018-04-01T11:18:24.831Z,99911.82
2018-04-01T11:20:52.515Z,99916.16
2018-04-01T11:23:20.197Z,99920.58
2018-04-01T11:25:47.916Z,99926.36
2018-04-01T11:28:15.608Z,99930.80
2018-04-01T11:30:43.348Z,99946.02
2018-04-01T11:33:11.156Z,99937.02
2018-04-01T11:35:38.880Z,99941.89
2018-04-01T11:38:06.558Z,99939.45
2018-04-01T11:40:34.251Z,99931.56
2018-04-01T11:43:01.893Z,99929.80
2018-04-01T11:45:29.535Z,99922.98
2018-04-01T11:47:57.173Z,99923.51
2018-04-01T11:50:24.806Z,99925.42
2018-04-01T11:52:52.510Z,99935.52
2018-04-01T11:55:20.155Z,99932.73
2018-04-01T11:57:47.845Z,99928.03
2018-04-01T12:00:15.701Z,99922.45
2018-04-01T12:02:43.995Z,99910.20
2018-04-01T12:05:11.648Z,99920.88
2018-04-01T12:07:39.614Z,99927.00
2018-04-01T12:10:07.259Z,99916.03
2018-04-01T12:12:34.907Z,99915.77
2018-04-01T12:15:02.608Z,99914.87
2018-04-01T12:17:30.313Z,99933.05
2018-04-01T12:19:57.947Z,99933.67
2018-04-01T12:22:25.689Z,99941.16
2018-04-01T12:24:53.327Z,99953.78
2018-04-01T12:27:21.000Z,99966.14
2018-04-01T12:29:48.706Z,99991.17
2018-04-01T12:32:16.358Z,100018.83
2018-04-01T12:34:43.985Z,100079.20
2018-04-01T12:37:11.643Z,100041.28
2018-04-01T12:39:39.306Z,100037.52
2018-04-01T12:42:07.106Z,100046.56
2018-04-01T12:44:34.741Z,100049.34
2018-04-01T12:47:02.397Z,100046.36
2018-04-01T12:49:30.090Z,100045.11
2018-04-01T12:51:57.757Z,100033.34
2018-04-01T12:54:25.433Z,100029.80
2018-04-01T12:56:53.149Z,100036.71
2018-04-01T12:59:20.801Z,99994.13
2018-04-01T13:01:48.505Z,99982.88
2018-04-01T13:04:16.228Z,99979.35
2018-04-01T13:06:43.857Z,99972.31
2018-04-01T13:09:11.540Z,99987.47
2018-04-01T13:11:39.183Z,99988.11
2018-04-01T13:14:06.812Z,99976.64
2018-04-01T13:16:34.584Z,99972.93
2018-04-01T13:19:02.222Z,99977.58
2018-04-01T13:21:29.907Z,99987.12
2018-04-01T13:23:57.570Z,99987.55
2018-04-01T13:26:25.219Z,99969.91
2018-04-01T13:28:52.915Z,99952.53
2018-04-01T13:31:20.596Z,99949.11
2018-04-01T13:33:48.254Z,99951.99
2018-04-01T13:36:15.910Z,99941.52
2018-04-01T13:38:43.545Z,99941.95
2018-04-01T13:41:11.235Z,99938.25
2018-04-01T13:43:38.932Z,99920.47
2018-04-01T13:46:06.590Z,99918.91
2018-04-01T13:48:34.262Z,99918.01
2018-04-01T13:51:01.943Z,99918.08
2018-04-01T13:53:29.643Z,99919.79
2018-04-01T13:55:58.394Z,99922.82
2018-04-01T13:58:26.071Z,99911.00
2018-04-01T14:00:53.764Z,99918.44
2018-04-01T14:03:21.506Z,99916.41
2018-04-01T14:05:49.162Z,99920.75
2018-04-01T14:08:16.869Z,99906.59
2018-04-01T14:10:44.496Z,99888.65
2018-04-01T14:13:12.125Z,99898.13
2018-04-01T14:15:39.811Z,99907.78
2018-04-01T14:18:07.573Z,99901.14
2018-04-01T14:20:35.244Z,99896.60
2018-04-01T14:23:02.922Z,99888.70
2018-04-01T14:25:30.674Z,99890.34
2018-04-01T14:27:58.334Z,99883.62
2018-04-01T14:30:26.006Z,99889.52
2018-04-01T14:32:53.662Z,99886.93
2018-04-01T14:35:21.316Z,99886.50
2018-04-01T14:37:48.986Z,99870.98
2018-04-01T14:40:16.642Z,99871.02
2018-04-01T14:42:44.279Z,99876.28
2018-04-01T14:45:11.976Z,99870.73
2018-04-01T14:47:39.633Z,99867.64
2018-04-01T14:50:07.311Z,99861.80
2018-04-01T14:52:34.965Z,99868.03
2018-04-01T14:55:03.390Z,99869.33
2018-04-01T14:57:31.111Z,99860.20
2018-04-01T14:59:58.875Z,99868.37
2018-04-01T15:02:26.505Z,99840.02
2018-04-01T15:04:54.205Z,99830.72
2018-04-01T15:07:21.958Z,99805.86
2018-04-01T15:09:49.599Z,99823.19
2018-04-01T15:12:17.251Z,99808.41
2018-04-01T15:14:44.931Z,99801.64
2018-04-01T15:17:12.570Z,99813.00
2018-04-01T15:19:40.422Z,99842.79
2018-04-01T15:22:08.150Z,99858.33
2018-04-01T15:24:35.976Z,99860.91
2018-04-01T15:27:03.624Z,99875.45
2018-04-01T15:29:31.297Z,99867.68
2018-04-01T15:31:58.961Z,99882.94
2018-04-01T15:34:26.618Z,99889.08
2018-04-01T15:36:54.264Z,99877.09
2018-04-01T15:39:21.966Z,99877.05
2018-04-01T15:41:49.641Z,99887.28
2018-04-01T15:44:17.291Z,99883.67
2018-04-01T15:46:44.971Z,99892.09
2018-04-01T15:49:12.760Z,99896.11
2018-04-01T15:51:40.389Z,99887.73
2018-04-01T15:54:08.176Z,99891.73
2018-04-01T15:56:35.809Z,99889.25
2018-04-01T15:59:03.503Z,99880.52
2018-04-01T16:01:31.234Z,99880.35
2018-04-01T16:03:58.888Z,99878.91
2018-04-01T16:06:26.530Z,99883.12
2018-04-01T16:08:54.234Z,99871.41
2018-04-01T16:11:22.016Z,99867.73
2018-04-01T16:13:49.716Z,99874.66
2018-04-01T16:16:17.332Z,99853.42
2018-04-01T16:18:45.043Z,99855.77
2018-04-01T16:21:12.731Z,99848.09
2018-04-01T16:23:40.394Z,99855.13
2018-04-01T16:26:08.030Z,99851.05
2018-04-01T16:28:35.761Z,99858.48
2018-04-01T16:31:03.392Z,99863.15
2018-04-01T16:33:31.062Z,99875.94
2018-04-01T16:35:58.727Z,99883.41
2018-04-01T16:38:26.447Z,99869.25
2018-04-01T16:40:54.167Z,99887.04
2018-04-01T16:43:21.813Z,99891.50
2018-04-01T16:45:49.463Z,99887.28
2018-04-01T16:48:17.369Z,99900.05
2018-04-01T16:50:45.016Z,99905.12
2018-04-01T16:53:12.778Z,99924.74
2018-04-01T16:55:40.423Z,99946.70
2018-04-01T16:58:08.110Z,99972.17
2018-04-01T17:00:35.789Z,99969.69
2018-04-01T17:03:03.546Z,99967.92
2018-04-01T17:05:31.261Z,99974.33
2018-04-01T17:07:58.958Z,99968.27
2018-04-01T17:10:26.638Z,99954.87
2018-04-01T17:12:54.273Z,99931.66
2018-04-01T17:15:21.963Z,99895.56
2018-04-01T17:17:49.726Z,99867.11
2018-04-01T17:20:17.399Z,99907.23
2018-04-01T17:22:45.152Z,99949.37
2018-04-01T17:25:12.819Z,99949.80
2018-04-01T17:27:40.505Z,99971.27
2018-04-01T17:30:08.148Z,99959.19
2018-04-01T17:32:35.815Z,99976.52
2018-04-01T17:35:03.460Z,100044.16
2018-04-01T17:37:31.106Z,100056.33
2018-04-01T17:39:58.777Z,100072.59
2018-04-01T17:42:26.484Z,100078.02
2018-04-01T17:44:54.117Z,100095.54
2018-04-01T17:47:21.807Z,100104.22
2018-04-01T17:49:49.441Z,100092.25
2018-04-01T17:52:17.142Z,100083.91
2018-04-01T17:54:44.940Z,100072.54
2018-04-01T17:57:12.615Z,100042.72
2018-04-01T17:59:42.110Z,100025.64
2018-04-01T18:02:09.752Z,100030.95
2018-04-01T18:04:37.382Z,100064.81
2018-04-01T18:07:05.063Z,100076.30
2018-04-01T18:09:32.729Z,100082.66
2018-04-01T18:12:00.393Z,100055.41
2018-04-01T18:14:28.083Z,100044.02
2018-04-01T18:16:55.731Z,100020.09
2018-04-01T18:19:23.413Z,100055.52
2018-04-01T18:21:51.194Z,100077.97
2018-04-01T18:24:18.885Z,100081.56
2018-04-01T18:26:46.517Z,100104.82
2018-04-01T18:29:14.213Z,100131.89
2018-04-01T18:31:41.900Z,100120.91
2018-04-01T18:34:09.594Z,100109.92
2018-04-01T18:36:37.278Z,100099.02
2018-04-01T18:39:04.931Z,100097.53
2018-04-01T18:41:32.609Z,100106.18
2018-04-01T18:44:00.246Z,100107.22
2018-04-01T18:46:27.931Z,100121.89
2018-04-01T18:48:55.579Z,100103.19
2018-04-01T18:51:23.349Z,100112.50
2018-04-01T18:53:51.024Z,100122.61
2018-04-01T18:56:18.686Z,100115.41
2018-04-01T18:58:46.456Z,100118.27
2018-04-01T19:01:14.853Z,100139.11
2018-04-01T19:03:42.500Z,100144.19
2018-04-01T19:06:10.133Z,100143.25
2018-04-01T19:08:37.814Z,100145.25
2018-04-01T19:11:05.445Z,100148.30
2018-04-01T19:13:33.103Z,100141.39
2018-04-01T19:16:01.824Z,100153.00
2018-04-01T19:18:30.365Z,100136.62
2018-04-01T19:20:59.495Z,100124.73
2018-04-01T19:23:28.681Z,100124.00
2018-04-01T19:25:57.671Z,100103.55
2018-04-01T19:28:26.696Z,100117.69
2018-04-01T19:30:55.786Z,100092.55
2018-04-01T19:33:25.033Z,100093.97
2018-04-01T19:35:54.173Z,100103.77
2018-04-01T19:38:23.359Z,100124.99
2018-04-01T19:40:52.583Z,100093.14
2018-04-01T19:43:21.690Z,100099.55
2018-04-01T19:45:50.973Z,100124.04
2018-04-01T19:48:20.094Z,100125.14
2018-04-01T19:50:49.421Z,100119.95
2018-04-01T19:53:18.689Z,100137.99
2018-04-01T19:55:47.985Z,100173.16
2018-04-01T19:58:17.154Z,100154.11
2018-04-01T20:00:46.791Z,100151.64
2018-04-01T20:03:15.953Z,100163.70
2018-04-01T20:05:48.053Z,100183.86
2018-04-01T20:08:17.351Z,100157.15
2018-04-01T20:10:47.145Z,100168.89
2018-04-01T20:13:16.346Z,100179.53
2018-04-01T20:15:45.497Z,100168.73
2018-04-01T20:18:14.563Z,100217.97
2018-04-01T20:20:43.666Z,100195.44
2018-04-01T20:23:12.893Z,100182.52
2018-04-01T20:25:41.935Z,100204.30
2018-04-01T20:28:11.214Z,100200.82
2018-04-01T20:30:40.210Z,100197.94
2018-04-01T20:33:12.338Z,100197.62
2018-04-01T20:35:44.149Z,100229.73
2018-04-01T20:38:13.246Z,100251.91
2018-04-01T20:40:42.429Z,100245.86
2018-04-01T20:43:11.631Z,100252.84
2018-04-01T20:45:40.801Z,100230.33
2018-04-01T20:48:10.119Z,100255.84
2018-04-01T20:50:39.265Z,100248.17
2018-04-01T20:53:08.456Z,100248.06
2018-04-01T20:55:37.726Z,100268.25
2018-04-01T20:58:07.051Z,100244.52
2018-04-01T21:00:36.207Z,100241.34
2018-04-01T21:03:05.335Z,100248.84
2018-04-01T21:05:34.490Z,100233.89
2018-04-01T21:08:03.585Z,100268.67
2018-04-01T21:10:32.739Z,100273.55
2018-04-01T21:13:01.881Z,100251.77
2018-04-01T21:15:31.029Z,100240.72
2018-04-01T21:18:00.123Z,100255.85
2018-04-01T21:20:29.179Z,100241.59
2018-04-01T21:22:58.629Z,100258.88
2018-04-01T21:25:27.769Z,100262.33
2018-04-01T21:27:56.786Z,100229.56
2018-04-01T21:30:26.033Z,100237.94
2018-04-01T21:32:55.422Z,100260.86
2018-04-01T21:35:24.574Z,100289.74
2018-04-01T21:37:54.115Z,100291.90
2018-04-01T21:40:23.211Z,100282.39
2018-04-01T21:42:52.202Z,100293.73
2018-04-01T21:45:21.271Z,100282.94
2018-04-01T21:47:50.668Z,100308.09
2018-04-01T21:50:19.856Z,100289.05
2018-04-01T21:52:49.201Z,100277.39
2018-04-01T21:55:18.367Z,100288.00
2018-04-01T21:57:50.989Z,100293.19
2018-04-01T22:00:20.143Z,100305.25
2018-04-01T22:02:49.294Z,100296.75
2018-04-01T22:05:19.325Z,100301.20
2018-04-01T22:07:48.601Z,100338.94
2018-04-01T22:10:17.789Z,100323.06
2018-04-01T22:12:46.899Z,100319.23
2018-04-01T22:15:16.051Z,100330.58
2018-04-01T22:17:45.309Z,100330.02
2018-04-01T22:20:14.553Z,100323.16
2018-04-01T22:22:58.115Z,100335.64
2018-04-01T22:25:27.146Z,100371.33
2018-04-01T22:27:56.383Z,100342.69
2018-04-01T22:30:25.579Z,100348.70
2018-04-01T22:32:54.778Z,100353.44
2018-04-01T22:35:26.941Z,100338.34
2018-04-01T22:37:56.074Z,100355.92
2018-04-01T22:40:25.230Z,100324.94
2018-04-01T22:42:54.492Z,100355.47
2018-04-01T22:45:23.522Z,100364.01
2018-04-01T22:47:52.810Z,100336.59
2018-04-01T22:50:21.995Z,100353.44
2018-04-01T22:52:51.369Z,100373.08
2018-04-01T22:55:20.506Z,100363.52
2018-04-01T22:57:49.722Z,100346.50
2018-04-01T23:00:19.593Z,100350.86
2018-04-01T23:02:48.529Z,100371.86
2018-04-01T23:05:17.531Z,100373.59
2018-04-01T23:07:50.057Z,100372.19
2018-04-01T23:10:22.313Z,100370.62
2018-04-01T23:12:51.718Z,100382.47
2018-04-01T23:15:20.983Z,100387.72
2018-04-01T23:17:50.139Z,100371.14
2018-04-01T23:20:19.330Z,100387.49
2018-04-01T23:22:48.370Z,100395.55
2018-04-01T23:25:17.693Z,100401.14
2018-04-01T23:27:46.897Z,100396.28
2018-04-01T23:30:16.219Z,100400.45
2018-04-01T23:32:45.267Z,100395.50
2018-04-01T23:35:14.467Z,100389.05
2018-04-01T23:37:43.605Z,100401.94
2018-04-01T23:40:15.873Z,100376.34
2018-04-01T23:42:44.995Z,100393.91
2018-04-01T23:45:14.117Z,100374.59
2018-04-01T23:47:43.446Z,100410.42
2018-04-01T23:50:12.549Z,100394.12
2018-04-01T23:52:42.343Z,100398.28
2018-04-01T23:55:11.534Z,100424.31
2018-04-01T23:57:40.521Z,100415.00
